createdAt,value
2018-12-20T00:02:21.162Z,15.68
2018-12-20T00:04:55.874Z,14.98
2018-12-20T00:07:30.300Z,16.02
2018-12-20T00:10:06.777Z,17.98
2018-12-20T00:12:41.700Z,14.68
2018-12-20T00:15:18.061Z,15.38
2018-12-20T00:17:53.710Z,12.47
2018-12-20T00:20:31.407Z,14.18
2018-12-20T00:23:09.929Z,13.08
2018-12-20T00:25:49.773Z,16.02
2018-12-20T00:28:24.201Z,17.50
2018-12-20T00:30:58.975Z,14.65
2018-12-20T00:33:34.575Z,16.80
2018-12-20T00:36:10.226Z,14.53
2018-12-20T00:38:49.553Z,15.55
2018-12-20T00:41:25.311Z,16.87
2018-12-20T00:44:01.676Z,13.25
2018-12-20T00:46:39.375Z,14.83
2018-12-20T00:49:16.883Z,14.43
2018-12-20T00:51:52.955Z,14.53
2018-12-20T00:54:28.682Z,14.28
2018-12-20T00:57:06.879Z,12.35
2018-12-20T00:59:41.452Z,15.95
2018-12-20T01:02:16.999Z,12.03
2018-12-20T01:04:52.661Z,11.65
2018-12-20T01:07:29.167Z,14.40
2018-12-20T01:10:06.079Z,12.73
2018-12-20T01:12:42.516Z,13.55
2018-12-20T01:15:20.937Z,15.45
2018-12-20T01:17:54.595Z,15.05
2018-12-20T01:20:29.712Z,21.20
2018-12-20T01:23:04.626Z,15.32
2018-12-20T01:25:38.763Z,16.67
2018-12-20T01:28:11.828Z,17.42
2018-12-20T01:30:49.612Z,13.95
2018-12-20T01:33:25.148Z,14.65
2018-12-20T01:36:02.035Z,14.03
2018-12-20T01:38:36.625Z,12.65
2018-12-20T01:41:15.000Z,13.00
2018-12-20T01:43:52.658Z,12.45
2018-12-20T01:46:25.752Z,14.23
2018-12-20T01:49:01.264Z,12.98
2018-12-20T01:51:37.557Z,13.98
2018-12-20T01:54:16.186Z,12.45
2018-12-20T01:56:50.501Z,13.58
2018-12-20T01:59:28.361Z,12.78
2018-12-20T02:02:03.895Z,12.58
2018-12-20T02:04:38.698Z,12.88
2018-12-20T02:07:15.143Z,12.55
2018-12-20T02:09:53.831Z,13.18
2018-12-20T02:12:28.685Z,12.60
2018-12-20T02:15:02.905Z,12.15
2018-12-20T02:17:40.078Z,11.25
2018-12-20T02:20:17.073Z,10.90
2018-12-20T02:22:52.843Z,10.55
2018-12-20T02:25:28.531Z,9.33
2018-12-20T02:28:03.587Z,10.75
2018-12-20T02:30:39.903Z,10.40
2018-12-20T02:33:15.315Z,10.13
2018-12-20T02:35:51.942Z,12.00
2018-12-20T02:38:26.790Z,12.18
2018-12-20T02:41:04.173Z,16.52
2018-12-20T02:43:39.573Z,10.80
2018-12-20T02:46:14.595Z,10.50
2018-12-20T02:48:48.963Z,12.98
2018-12-20T02:51:27.397Z,9.85
2018-12-20T02:54:04.366Z,11.35
2018-12-20T02:56:40.665Z,9.70
2018-12-20T02:59:16.442Z,7.17
2018-12-20T03:01:48.848Z,10.20
2018-12-20T03:04:24.334Z,9.48
2018-12-20T03:07:01.379Z,9.68
2018-12-20T03:09:35.655Z,7.50
2018-12-20T03:12:14.185Z,7.92
2018-12-20T03:14:49.251Z,6.87
2018-12-20T03:17:26.266Z,9.00
2018-12-20T03:20:02.058Z,11.20
2018-12-20T03:22:37.601Z,7.08
2018-12-20T03:25:12.607Z,8.73
2018-12-20T03:27:48.258Z,8.28
2018-12-20T03:30:22.579Z,7.53
2018-12-20T03:32:59.066Z,8.48
2018-12-20T03:35:33.801Z,9.03
2018-12-20T03:38:10.303Z,9.18
2018-12-20T03:40:48.149Z,7.15
2018-12-20T03:43:25.200Z,7.97
2018-12-20T03:46:02.256Z,8.85
2018-12-20T03:48:37.827Z,8.40
2018-12-20T03:51:12.992Z,7.42
2018-12-20T17:48:04.154Z,8.53
2018-12-20T17:50:32.614Z,10.75
2018-12-20T17:53:01.090Z,8.33
2018-12-20T17:55:44.896Z,7.20
2018-12-20T17:58:21.053Z,7.78
2018-12-20T18:01:06.465Z,8.43
2018-12-20T18:03:35.238Z,7.45
2018-12-20T18:06:03.722Z,8.45
2018-12-20T18:08:32.186Z,6.95
2018-12-20T18:11:00.641Z,7.80
2018-12-20T18:13:29.175Z,6.92
2018-12-20T18:15:57.646Z,8.10
2018-12-20T18:18:26.110Z,6.90
2018-12-20T18:20:54.584Z,8.35
2018-12-20T18:23:23.070Z,10.95
2018-12-20T18:25:51.571Z,9.83
2018-12-20T18:28:20.058Z,7.55
2018-12-20T18:30:48.526Z,5.50
2018-12-20T18:33:17.031Z,9.88
2018-12-20T18:35:48.516Z,11.50
2018-12-20T18:38:17.040Z,7.50
2018-12-20T18:40:45.605Z,12.00
2018-12-20T18:43:14.075Z,7.92
2018-12-20T18:45:42.582Z,7.00
2018-12-20T18:48:11.061Z,6.90
2018-12-20T18:50:39.539Z,7.20
2018-12-20T18:53:08.067Z,5.83
2018-12-20T18:55:37.067Z,7.72
2018-12-20T18:58:05.633Z,9.60
2018-12-20T19:00:35.966Z,10.23
2018-12-20T19:03:04.627Z,12.25
2018-12-20T19:05:33.151Z,9.53
2018-12-20T19:08:01.621Z,6.47
2018-12-20T19:10:30.106Z,8.75
2018-12-20T19:12:58.829Z,13.53
2018-12-20T19:15:27.318Z,13.55
2018-12-20T19:17:55.794Z,8.40
2018-12-20T19:20:24.270Z,6.85
2018-12-20T19:22:52.753Z,6.72
2018-12-20T19:25:21.234Z,7.95
2018-12-20T19:27:49.732Z,6.53
2018-12-20T19:30:18.218Z,8.03
2018-12-20T19:32:46.694Z,7.10
2018-12-20T19:35:15.243Z,9.53
2018-12-20T19:37:43.742Z,9.70
2018-12-20T19:40:12.995Z,8.98
2018-12-20T19:42:41.848Z,9.03
2018-12-20T19:45:10.552Z,8.93
2018-12-20T19:47:39.030Z,6.58
2018-12-20T19:50:09.618Z,7.83
2018-12-20T19:52:38.096Z,9.75
2018-12-20T19:55:07.198Z,9.40
2018-12-20T19:57:35.675Z,6.95
2018-12-20T20:00:06.821Z,6.60
2018-12-20T20:02:35.305Z,7.05
2018-12-20T20:05:04.069Z,9.03
2018-12-20T20:07:32.546Z,7.92
2018-12-20T20:10:01.029Z,7.42
2018-12-20T20:12:29.728Z,6.83
2018-12-20T20:15:28.745Z,5.45
2018-12-20T20:17:57.371Z,6.40
2018-12-20T20:20:25.838Z,8.10
2018-12-20T20:22:54.338Z,8.90
2018-12-20T20:25:22.910Z,8.95
2018-12-20T20:27:51.403Z,7.25
2018-12-20T20:30:19.882Z,11.18
2018-12-20T20:32:48.362Z,10.28
2018-12-20T20:35:16.883Z,8.18
2018-12-20T20:37:45.338Z,8.03
2018-12-20T20:40:13.836Z,15.75
2018-12-20T20:42:42.309Z,17.67
2018-12-20T20:45:10.818Z,10.15
2018-12-20T20:47:39.321Z,7.90
2018-12-20T20:50:08.649Z,13.00
2018-12-20T20:52:37.282Z,8.98
2018-12-20T20:55:08.240Z,7.45
2018-12-20T20:57:36.722Z,6.90
2018-12-20T21:00:08.930Z,8.43
2018-12-20T21:02:37.429Z,6.50
2018-12-20T21:05:06.726Z,6.83
2018-12-20T21:07:35.233Z,9.30
2018-12-20T21:10:04.455Z,20.62
2018-12-20T21:12:32.942Z,11.80
2018-12-20T21:15:01.423Z,11.50
2018-12-20T21:17:29.906Z,11.73
2018-12-20T21:19:58.379Z,8.38
2018-12-20T21:22:26.862Z,8.80
2018-12-20T21:24:55.341Z,9.05
2018-12-20T21:27:23.826Z,8.30
2018-12-20T21:29:52.300Z,7.85
2018-12-20T21:32:20.768Z,8.85
2018-12-20T21:34:49.466Z,7.00
2018-12-20T21:37:17.954Z,7.28
2018-12-20T21:39:46.434Z,9.43
2018-12-20T21:42:14.898Z,6.10
2018-12-20T21:44:43.398Z,8.38
2018-12-20T21:47:11.865Z,8.15
2018-12-20T21:49:40.329Z,8.05
2018-12-20T21:52:10.453Z,8.13
2018-12-20T21:54:38.931Z,7.78
2018-12-20T21:57:07.437Z,12.78
2018-12-20T21:59:35.914Z,8.35
2018-12-20T22:02:04.522Z,10.13
2018-12-20T22:04:32.997Z,9.70
2018-12-20T22:07:01.463Z,15.35
2018-12-20T22:09:29.929Z,12.15
2018-12-20T22:11:58.442Z,9.03
2018-12-20T22:14:26.922Z,7.47
2018-12-20T22:16:55.669Z,11.65
2018-12-20T22:19:24.194Z,12.28
2018-12-20T22:21:52.713Z,9.50
2018-12-20T22:24:21.185Z,7.75
2018-12-20T22:26:49.650Z,12.58
2018-12-20T22:29:18.157Z,9.23
2018-12-20T22:31:46.634Z,7.15
2018-12-20T22:34:15.098Z,6.50
2018-12-20T22:36:43.561Z,6.42
2018-12-20T22:39:12.032Z,6.70
2018-12-20T22:42:10.873Z,7.47
2018-12-20T22:44:39.349Z,7.62
2018-12-20T22:47:07.832Z,17.77
2018-12-20T22:49:36.278Z,8.80
2018-12-20T22:52:04.757Z,11.55
2018-12-20T22:54:33.253Z,7.53
2018-12-20T22:57:01.721Z,8.43
2018-12-20T22:59:30.187Z,6.30
2018-12-20T23:01:58.677Z,6.12
2018-12-20T23:04:27.161Z,7.70
2018-12-20T23:06:55.643Z,7.30
2018-12-20T23:09:24.220Z,6.90
2018-12-20T23:11:52.698Z,7.55
2018-12-20T23:14:21.207Z,6.25
2018-12-20T23:16:53.610Z,6.17
2018-12-20T23:19:20.830Z,7.20
2018-12-20T23:30:29.344Z,6.50
2018-12-20T23:32:57.807Z,11.00
2018-12-20T23:35:26.277Z,8.55
2018-12-20T23:37:55.233Z,8.10
2018-12-20T23:40:23.701Z,8.70
2018-12-20T23:42:52.163Z,8.48
2018-12-20T23:45:20.626Z,15.70
2018-12-20T23:47:49.078Z,10.40
2018-12-20T23:50:17.586Z,18.35
2018-12-20T23:52:46.092Z,8.28
2018-12-20T23:55:14.705Z,7.45
2018-12-20T23:57:43.188Z,12.05
